Pays
Station

 

Conditions  météo  pour  El Salvador Intl. Airport/Comalapa  -  El Salvador    El Salvador

  
32 °C
    
 
 

METAR pour El Salvador Intl. Airport/Comalapa :

MSLP 231650Z 22005KT 180V250 9999 FEW037 32/24 Q1012 A2990 NOSIG

 

Voici le bulletin pour El Salvador Intl. Airport/Comalapa - El Salvador.
 
Le bulletin a été fait il y a 46 minutes, à 16:50 UTC .
Le vent soufflait à la vitesse de 2.6 mètres par seconde de Sud-ouest (220°), variant entre Sud (180°) et Ouest/Sud-ouest (250°).
 
La température était de 32 °C, avec un point de rosée à 24 °C.
La température ressentie était de 38 °C.
 
La pression atmosphérique était de 1013 hPa.
L'humidité relative était de 62.8%.
 
Il y avait 1 à 2/8ème de nébulosité à une hauteur de 1128 mètres.
 
La visibilité globale était de supérieure à 10 kilomètres.
 

 
 
 

Pays :   A   B   C   D   E   F   G   H   I   J   K   L   M   N   O   P   Q   R   S   T   U   V   W   Y   Z

 

Partenaires :  Info Météo avec Met'info
Météo Marine avec MeteoMarine.net
Infos Site  |  Infos Légales  |  Crédits  |  Confidentialité
Contactez-nous  |  Ajouter aux favoris
© 2013-2019 METAR - Tous droits réservés